sensor_id;sensor_type;location;lat;lon;timestamp;P1;durP1;ratioP1;P2;durP2;ratioP2
42662;SDS011;44330;51.360;6.686;2023-02-20T00:00:41;14.05;;;7.55;;
42662;SDS011;44330;51.360;6.686;2023-02-20T00:03:07;18.75;;;8.10;;
42662;SDS011;44330;51.360;6.686;2023-02-20T00:05:33;17.73;;;8.43;;
42662;SDS011;44330;51.360;6.686;2023-02-20T00:07:59;19.70;;;8.70;;
42662;SDS011;44330;51.360;6.686;2023-02-20T00:10:25;16.95;;;8.75;;
42662;SDS011;44330;51.360;6.686;2023-02-20T00:12:51;13.57;;;7.68;;
42662;SDS011;44330;51.360;6.686;2023-02-20T00:15:17;13.00;;;6.78;;
42662;SDS011;44330;51.360;6.686;2023-02-20T00:17:44;13.48;;;6.80;;
42662;SDS011;44330;51.360;6.686;2023-02-20T00:20:14;13.18;;;6.90;;
42662;SDS011;44330;51.360;6.686;2023-02-20T00:22:41;14.70;;;7.47;;
42662;SDS011;44330;51.360;6.686;2023-02-20T00:25:06;12.55;;;6.97;;
42662;SDS011;44330;51.360;6.686;2023-02-20T00:27:32;14.45;;;7.25;;
42662;SDS011;44330;51.360;6.686;2023-02-20T00:29:57;20.90;;;8.02;;
42662;SDS011;44330;51.360;6.686;2023-02-20T00:32:23;15.07;;;8.93;;
42662;SDS011;44330;51.360;6.686;2023-02-20T00:34:48;23.92;;;9.60;;
42662;SDS011;44330;51.360;6.686;2023-02-20T00:37:14;19.80;;;9.27;;
42662;SDS011;44330;51.360;6.686;2023-02-20T00:39:40;18.15;;;8.75;;
42662;SDS011;44330;51.360;6.686;2023-02-20T00:42:05;19.70;;;9.27;;
42662;SDS011;44330;51.360;6.686;2023-02-20T00:44:31;17.95;;;9.32;;
42662;SDS011;44330;51.360;6.686;2023-02-20T00:47:00;19.40;;;11.23;;
42662;SDS011;44330;51.360;6.686;2023-02-20T00:49:25;21.33;;;10.60;;
42662;SDS011;44330;51.360;6.686;2023-02-20T00:51:51;21.15;;;10.55;;
42662;SDS011;44330;51.360;6.686;2023-02-20T00:54:17;24.30;;;11.07;;
42662;SDS011;44330;51.360;6.686;2023-02-20T00:56:42;21.88;;;10.63;;
42662;SDS011;44330;51.360;6.686;2023-02-20T00:59:08;22.80;;;10.57;;
42662;SDS011;44330;51.360;6.686;2023-02-20T01:01:33;27.38;;;11.63;;
42662;SDS011;44330;51.360;6.686;2023-02-20T01:03:59;21.80;;;10.50;;
42662;SDS011;44330;51.360;6.686;2023-02-20T01:06:24;25.00;;;11.30;;
42662;SDS011;44330;51.360;6.686;2023-02-20T01:08:50;17.55;;;10.27;;
42662;SDS011;44330;51.360;6.686;2023-02-20T01:11:16;22.20;;;11.02;;
42662;SDS011;44330;51.360;6.686;2023-02-20T01:13:42;20.73;;;9.98;;
42662;SDS011;44330;51.360;6.686;2023-02-20T01:16:07;21.13;;;11.00;;
42662;SDS011;44330;51.360;6.686;2023-02-20T01:18:33;19.83;;;10.18;;
42662;SDS011;44330;51.360;6.686;2023-02-20T01:20:58;25.33;;;11.07;;
42662;SDS011;44330;51.360;6.686;2023-02-20T01:23:24;20.83;;;10.82;;
42662;SDS011;44330;51.360;6.686;2023-02-20T01:25:50;20.33;;;10.65;;
42662;SDS011;44330;51.360;6.686;2023-02-20T01:28:15;22.65;;;10.50;;
42662;SDS011;44330;51.360;6.686;2023-02-20T01:30:41;20.65;;;10.23;;
42662;SDS011;44330;51.360;6.686;2023-02-20T01:33:06;17.70;;;9.90;;
42662;SDS011;44330;51.360;6.686;2023-02-20T01:35:32;21.77;;;10.80;;
42662;SDS011;44330;51.360;6.686;2023-02-20T01:37:58;23.13;;;10.85;;
42662;SDS011;44330;51.360;6.686;2023-02-20T01:40:24;20.15;;;10.02;;
42662;SDS011;44330;51.360;6.686;2023-02-20T01:42:51;21.45;;;10.63;;
42662;SDS011;44330;51.360;6.686;2023-02-20T01:47:43;21.05;;;11.25;;
42662;SDS011;44330;51.360;6.686;2023-02-20T01:50:09;26.95;;;11.45;;
42662;SDS011;44330;51.360;6.686;2023-02-20T01:52:36;23.45;;;10.88;;
42662;SDS011;44330;51.360;6.686;2023-02-20T01:57:47;28.77;;;11.98;;
42662;SDS011;44330;51.360;6.686;2023-02-20T02:00:20;24.65;;;12.43;;
42662;SDS011;44330;51.360;6.686;2023-02-20T02:02:51;24.00;;;11.55;;
42662;SDS011;44330;51.360;6.686;2023-02-20T02:05:21;25.60;;;11.27;;
42662;SDS011;44330;51.360;6.686;2023-02-20T02:07:48;24.27;;;11.10;;
42662;SDS011;44330;51.360;6.686;2023-02-20T02:10:19;21.80;;;10.75;;
42662;SDS011;44330;51.360;6.686;2023-02-20T02:12:50;28.80;;;10.98;;
42662;SDS011;44330;51.360;6.686;2023-02-20T02:15:19;24.50;;;12.18;;
42662;SDS011;44330;51.360;6.686;2023-02-20T02:26:08;26.25;;;12.85;;
42662;SDS011;44330;51.360;6.686;2023-02-20T02:32:00;26.23;;;12.65;;
42662;SDS011;44330;51.360;6.686;2023-02-20T02:37:32;29.42;;;14.48;;
42662;SDS011;44330;51.360;6.686;2023-02-20T02:40:17;28.85;;;13.85;;
42662;SDS011;44330;51.360;6.686;2023-02-20T02:43:07;29.90;;;14.52;;
42662;SDS011;44330;51.360;6.686;2023-02-20T02:45:45;30.33;;;14.70;;
42662;SDS011;44330;51.360;6.686;2023-02-20T02:50:49;30.73;;;14.43;;
42662;SDS011;44330;51.360;6.686;2023-02-20T02:53:20;31.85;;;14.40;;
42662;SDS011;44330;51.360;6.686;2023-02-20T02:55:45;32.17;;;13.95;;
42662;SDS011;44330;51.360;6.686;2023-02-20T02:58:11;36.40;;;15.75;;
42662;SDS011;44330;51.360;6.686;2023-02-20T03:11:21;31.85;;;13.10;;
42662;SDS011;44330;51.360;6.686;2023-02-20T03:13:50;29.35;;;14.05;;
42662;SDS011;44330;51.360;6.686;2023-02-20T03:19:25;28.60;;;13.20;;
42662;SDS011;44330;51.360;6.686;2023-02-20T03:21:56;23.73;;;11.25;;
42662;SDS011;44330;51.360;6.686;2023-02-20T03:24:25;31.13;;;13.98;;
42662;SDS011;44330;51.360;6.686;2023-02-20T03:26:54;28.45;;;13.73;;
42662;SDS011;44330;51.360;6.686;2023-02-20T03:29:23;31.90;;;13.95;;
42662;SDS011;44330;51.360;6.686;2023-02-20T03:32:03;26.45;;;13.35;;
42662;SDS011;44330;51.360;6.686;2023-02-20T03:34:52;29.35;;;12.15;;
42662;SDS011;44330;51.360;6.686;2023-02-20T03:37:39;28.00;;;11.82;;
42662;SDS011;44330;51.360;6.686;2023-02-20T03:40:26;30.02;;;13.05;;
42662;SDS011;44330;51.360;6.686;2023-02-20T03:43:12;30.92;;;13.00;;
42662;SDS011;44330;51.360;6.686;2023-02-20T03:45:46;31.02;;;11.32;;
42662;SDS011;44330;51.360;6.686;2023-02-20T03:48:18;25.88;;;11.65;;
42662;SDS011;44330;51.360;6.686;2023-02-20T03:51:04;30.50;;;11.52;;
42662;SDS011;44330;51.360;6.686;2023-02-20T03:53:37;24.50;;;11.25;;
42662;SDS011;44330;51.360;6.686;2023-02-20T03:56:04;25.67;;;10.82;;
42662;SDS011;44330;51.360;6.686;2023-02-20T03:58:36;27.52;;;10.77;;
42662;SDS011;44330;51.360;6.686;2023-02-20T04:01:04;25.83;;;10.50;;
42662;SDS011;44330;51.360;6.686;2023-02-20T04:03:33;22.08;;;10.25;;
42662;SDS011;44330;51.360;6.686;2023-02-20T04:06:03;29.38;;;10.35;;
42662;SDS011;44330;51.360;6.686;2023-02-20T04:08:35;25.92;;;10.50;;
42662;SDS011;44330;51.360;6.686;2023-02-20T04:11:05;21.73;;;9.25;;
42662;SDS011;44330;51.360;6.686;2023-02-20T04:13:31;26.92;;;9.65;;
42662;SDS011;44330;51.360;6.686;2023-02-20T04:15:58;27.98;;;10.75;;
42662;SDS011;44330;51.360;6.686;2023-02-20T04:18:26;18.90;;;8.98;;
42662;SDS011;44330;51.360;6.686;2023-02-20T04:20:53;22.42;;;9.60;;
42662;SDS011;44330;51.360;6.686;2023-02-20T04:23:22;20.73;;;9.38;;
42662;SDS011;44330;51.360;6.686;2023-02-20T04:26:03;23.02;;;9.30;;
42662;SDS011;44330;51.360;6.686;2023-02-20T04:28:34;22.05;;;9.20;;
42662;SDS011;44330;51.360;6.686;2023-02-20T04:31:00;19.30;;;7.63;;
42662;SDS011;44330;51.360;6.686;2023-02-20T04:33:26;22.63;;;9.15;;
42662;SDS011;44330;51.360;6.686;2023-02-20T04:35:51;23.13;;;8.57;;
42662;SDS011;44330;51.360;6.686;2023-02-20T04:38:18;25.15;;;8.60;;
42662;SDS011;44330;51.360;6.686;2023-02-20T04:40:43;22.23;;;8.32;;
42662;SDS011;44330;51.360;6.686;2023-02-20T04:43:09;20.45;;;8.77;;
42662;SDS011;44330;51.360;6.686;2023-02-20T04:45:34;24.23;;;7.93;;
42662;SDS011;44330;51.360;6.686;2023-02-20T04:48:00;24.70;;;9.45;;
42662;SDS011;44330;51.360;6.686;2023-02-20T04:50:30;25.52;;;8.18;;
42662;SDS011;44330;51.360;6.686;2023-02-20T04:52:56;22.33;;;7.57;;
42662;SDS011;44330;51.360;6.686;2023-02-20T04:55:23;23.13;;;7.80;;
42662;SDS011;44330;51.360;6.686;2023-02-20T04:57:48;19.25;;;7.57;;
42662;SDS011;44330;51.360;6.686;2023-02-20T05:00:15;29.30;;;8.32;;
42662;SDS011;44330;51.360;6.686;2023-02-20T05:02:42;18.98;;;7.30;;
42662;SDS011;44330;51.360;6.686;2023-02-20T05:05:42;24.50;;;8.10;;
42662;SDS011;44330;51.360;6.686;2023-02-20T05:08:01;22.48;;;6.63;;
42662;SDS011;44330;51.360;6.686;2023-02-20T05:10:31;20.08;;;6.70;;
42662;SDS011;44330;51.360;6.686;2023-02-20T05:12:58;19.63;;;7.35;;
42662;SDS011;44330;51.360;6.686;2023-02-20T05:15:24;24.77;;;6.47;;
42662;SDS011;44330;51.360;6.686;2023-02-20T05:17:51;16.33;;;6.57;;
42662;SDS011;44330;51.360;6.686;2023-02-20T05:20:17;18.13;;;6.68;;
42662;SDS011;44330;51.360;6.686;2023-02-20T05:22:46;16.92;;;7.05;;
42662;SDS011;44330;51.360;6.686;2023-02-20T05:25:13;16.35;;;7.10;;
42662;SDS011;44330;51.360;6.686;2023-02-20T05:27:39;20.95;;;8.13;;
42662;SDS011;44330;51.360;6.686;2023-02-20T05:30:05;17.27;;;7.63;;
42662;SDS011;44330;51.360;6.686;2023-02-20T05:32:31;25.23;;;7.88;;
42662;SDS011;44330;51.360;6.686;2023-02-20T05:34:57;19.50;;;8.00;;
42662;SDS011;44330;51.360;6.686;2023-02-20T05:37:23;21.45;;;8.55;;
42662;SDS011;44330;51.360;6.686;2023-02-20T05:39:49;22.50;;;9.02;;
42662;SDS011;44330;51.360;6.686;2023-02-20T05:42:15;17.63;;;9.05;;
42662;SDS011;44330;51.360;6.686;2023-02-20T05:44:41;24.05;;;9.32;;
42662;SDS011;44330;51.360;6.686;2023-02-20T05:47:07;30.48;;;9.13;;
42662;SDS011;44330;51.360;6.686;2023-02-20T05:49:34;26.85;;;10.48;;
42662;SDS011;44330;51.360;6.686;2023-02-20T05:52:00;19.40;;;9.38;;
42662;SDS011;44330;51.360;6.686;2023-02-20T05:54:28;24.00;;;9.48;;
42662;SDS011;44330;51.360;6.686;2023-02-20T05:56:53;23.38;;;9.80;;
42662;SDS011;44330;51.360;6.686;2023-02-20T05:59:20;17.40;;;9.68;;
42662;SDS011;44330;51.360;6.686;2023-02-20T06:01:47;23.10;;;10.32;;
42662;SDS011;44330;51.360;6.686;2023-02-20T06:04:18;23.50;;;10.05;;
42662;SDS011;44330;51.360;6.686;2023-02-20T06:06:44;17.30;;;9.77;;
42662;SDS011;44330;51.360;6.686;2023-02-20T06:09:10;24.48;;;10.68;;
42662;SDS011;44330;51.360;6.686;2023-02-20T06:11:37;25.05;;;9.63;;
42662;SDS011;44330;51.360;6.686;2023-02-20T06:14:03;26.58;;;10.88;;
42662;SDS011;44330;51.360;6.686;2023-02-20T06:16:30;29.08;;;11.48;;
42662;SDS011;44330;51.360;6.686;2023-02-20T06:18:57;26.30;;;12.13;;
42662;SDS011;44330;51.360;6.686;2023-02-20T06:21:24;26.55;;;11.35;;
42662;SDS011;44330;51.360;6.686;2023-02-20T06:23:50;26.50;;;11.80;;
42662;SDS011;44330;51.360;6.686;2023-02-20T06:26:17;25.60;;;11.88;;
42662;SDS011;44330;51.360;6.686;2023-02-20T06:28:43;20.73;;;11.32;;
42662;SDS011;44330;51.360;6.686;2023-02-20T06:31:09;31.20;;;12.68;;
42662;SDS011;44330;51.360;6.686;2023-02-20T06:33:35;23.83;;;13.63;;
42662;SDS011;44330;51.360;6.686;2023-02-20T06:36:02;31.27;;;13.63;;
42662;SDS011;44330;51.360;6.686;2023-02-20T06:38:29;28.30;;;14.13;;
42662;SDS011;44330;51.360;6.686;2023-02-20T06:40:55;35.30;;;14.32;;
42662;SDS011;44330;51.360;6.686;2023-02-20T06:43:20;29.73;;;13.63;;
42662;SDS011;44330;51.360;6.686;2023-02-20T06:45:46;29.67;;;14.60;;
42662;SDS011;44330;51.360;6.686;2023-02-20T06:48:12;31.58;;;15.02;;
42662;SDS011;44330;51.360;6.686;2023-02-20T06:50:41;39.38;;;15.93;;
42662;SDS011;44330;51.360;6.686;2023-02-20T06:53:09;23.40;;;11.48;;
42662;SDS011;44330;51.360;6.686;2023-02-20T06:55:35;38.00;;;15.52;;
42662;SDS011;44330;51.360;6.686;2023-02-20T06:58:00;36.55;;;15.60;;
42662;SDS011;44330;51.360;6.686;2023-02-20T07:00:26;33.75;;;14.90;;
42662;SDS011;44330;51.360;6.686;2023-02-20T07:02:51;31.25;;;14.68;;
42662;SDS011;44330;51.360;6.686;2023-02-20T07:05:17;32.42;;;14.20;;
42662;SDS011;44330;51.360;6.686;2023-02-20T07:07:46;30.17;;;15.13;;
42662;SDS011;44330;51.360;6.686;2023-02-20T07:10:11;30.92;;;14.60;;
42662;SDS011;44330;51.360;6.686;2023-02-20T07:12:37;30.85;;;14.77;;
42662;SDS011;44330;51.360;6.686;2023-02-20T07:15:04;30.48;;;15.32;;
42662;SDS011;44330;51.360;6.686;2023-02-20T07:17:31;35.28;;;16.20;;
42662;SDS011;44330;51.360;6.686;2023-02-20T07:19:56;36.85;;;15.65;;
42662;SDS011;44330;51.360;6.686;2023-02-20T07:22:23;29.10;;;14.93;;
42662;SDS011;44330;51.360;6.686;2023-02-20T07:24:51;40.33;;;15.95;;
42662;SDS011;44330;51.360;6.686;2023-02-20T07:27:18;32.70;;;15.70;;
42662;SDS011;44330;51.360;6.686;2023-02-20T07:29:48;39.53;;;15.07;;
42662;SDS011;44330;51.360;6.686;2023-02-20T07:32:14;32.47;;;15.27;;
42662;SDS011;44330;51.360;6.686;2023-02-20T07:34:44;36.80;;;15.15;;
42662;SDS011;44330;51.360;6.686;2023-02-20T07:39:38;32.63;;;14.77;;
42662;SDS011;44330;51.360;6.686;2023-02-20T07:42:05;31.17;;;15.35;;
42662;SDS011;44330;51.360;6.686;2023-02-20T07:44:30;37.53;;;15.77;;
42662;SDS011;44330;51.360;6.686;2023-02-20T07:46:57;32.83;;;14.38;;
42662;SDS011;44330;51.360;6.686;2023-02-20T07:49:22;32.28;;;15.68;;
42662;SDS011;44330;51.360;6.686;2023-02-20T07:51:48;31.88;;;14.90;;
42662;SDS011;44330;51.360;6.686;2023-02-20T07:54:13;33.35;;;15.55;;
42662;SDS011;44330;51.360;6.686;2023-02-20T07:56:40;33.47;;;14.82;;
42662;SDS011;44330;51.360;6.686;2023-02-20T07:59:06;28.42;;;15.50;;
42662;SDS011;44330;51.360;6.686;2023-02-20T08:01:31;30.05;;;15.30;;
42662;SDS011;44330;51.360;6.686;2023-02-20T08:03:57;32.38;;;14.15;;
42662;SDS011;44330;51.360;6.686;2023-02-20T08:06:22;32.65;;;14.27;;
42662;SDS011;44330;51.360;6.686;2023-02-20T08:08:48;32.90;;;14.85;;
42662;SDS011;44330;51.360;6.686;2023-02-20T08:11:16;32.72;;;14.13;;
42662;SDS011;44330;51.360;6.686;2023-02-20T08:13:42;30.33;;;14.15;;
42662;SDS011;44330;51.360;6.686;2023-02-20T08:16:09;32.50;;;14.38;;
42662;SDS011;44330;51.360;6.686;2023-02-20T08:18:34;28.23;;;14.38;;
42662;SDS011;44330;51.360;6.686;2023-02-20T08:21:00;29.88;;;13.40;;
42662;SDS011;44330;51.360;6.686;2023-02-20T08:23:26;26.50;;;13.40;;
42662;SDS011;44330;51.360;6.686;2023-02-20T08:25:54;22.35;;;10.93;;
42662;SDS011;44330;51.360;6.686;2023-02-20T08:28:20;27.75;;;13.50;;
42662;SDS011;44330;51.360;6.686;2023-02-20T08:30:46;27.80;;;13.82;;
42662;SDS011;44330;51.360;6.686;2023-02-20T08:33:12;34.10;;;14.57;;
42662;SDS011;44330;51.360;6.686;2023-02-20T08:35:37;25.70;;;12.88;;
42662;SDS011;44330;51.360;6.686;2023-02-20T08:38:04;26.63;;;12.80;;
42662;SDS011;44330;51.360;6.686;2023-02-20T08:40:31;32.87;;;14.00;;
42662;SDS011;44330;51.360;6.686;2023-02-20T08:42:57;25.17;;;13.05;;
42662;SDS011;44330;51.360;6.686;2023-02-20T08:45:23;29.80;;;11.98;;
42662;SDS011;44330;51.360;6.686;2023-02-20T08:47:49;26.35;;;12.93;;
42662;SDS011;44330;51.360;6.686;2023-02-20T08:50:18;30.10;;;12.70;;
42662;SDS011;44330;51.360;6.686;2023-02-20T08:52:44;27.00;;;11.60;;
42662;SDS011;44330;51.360;6.686;2023-02-20T08:55:10;26.63;;;12.68;;
42662;SDS011;44330;51.360;6.686;2023-02-20T08:57:36;29.35;;;12.70;;
42662;SDS011;44330;51.360;6.686;2023-02-20T09:00:05;31.42;;;13.80;;
42662;SDS011;44330;51.360;6.686;2023-02-20T09:02:33;23.63;;;11.70;;
42662;SDS011;44330;51.360;6.686;2023-02-20T09:04:59;27.48;;;12.85;;
42662;SDS011;44330;51.360;6.686;2023-02-20T09:07:24;28.98;;;12.15;;
42662;SDS011;44330;51.360;6.686;2023-02-20T09:09:53;18.48;;;9.45;;
42662;SDS011;44330;51.360;6.686;2023-02-20T09:12:19;22.38;;;11.80;;
42662;SDS011;44330;51.360;6.686;2023-02-20T09:14:45;24.45;;;11.95;;
42662;SDS011;44330;51.360;6.686;2023-02-20T09:17:13;23.87;;;8.97;;
42662;SDS011;44330;51.360;6.686;2023-02-20T09:19:41;27.02;;;12.57;;
42662;SDS011;44330;51.360;6.686;2023-02-20T09:22:07;30.58;;;12.80;;
42662;SDS011;44330;51.360;6.686;2023-02-20T09:24:33;22.98;;;11.65;;
42662;SDS011;44330;51.360;6.686;2023-02-20T09:26:59;31.45;;;12.57;;
42662;SDS011;44330;51.360;6.686;2023-02-20T09:29:25;28.50;;;11.50;;
42662;SDS011;44330;51.360;6.686;2023-02-20T09:31:54;27.70;;;12.10;;
42662;SDS011;44330;51.360;6.686;2023-02-20T09:34:20;30.67;;;11.55;;
42662;SDS011;44330;51.360;6.686;2023-02-20T09:36:46;27.85;;;11.20;;
42662;SDS011;44330;51.360;6.686;2023-02-20T09:39:12;24.65;;;11.70;;
42662;SDS011;44330;51.360;6.686;2023-02-20T09:45:00;29.27;;;12.02;;
42662;SDS011;44330;51.360;6.686;2023-02-20T09:47:32;24.98;;;11.32;;
42662;SDS011;44330;51.360;6.686;2023-02-20T09:50:03;32.63;;;12.60;;
42662;SDS011;44330;51.360;6.686;2023-02-20T09:52:35;43.17;;;12.98;;
42662;SDS011;44330;51.360;6.686;2023-02-20T09:57:32;27.45;;;11.35;;
42662;SDS011;44330;51.360;6.686;2023-02-20T10:00:03;28.85;;;11.02;;
42662;SDS011;44330;51.360;6.686;2023-02-20T10:02:44;21.35;;;9.68;;
42662;SDS011;44330;51.360;6.686;2023-02-20T10:07:49;21.17;;;10.90;;
42662;SDS011;44330;51.360;6.686;2023-02-20T10:10:18;23.88;;;11.52;;
42662;SDS011;44330;51.360;6.686;2023-02-20T10:12:47;27.02;;;11.27;;
42662;SDS011;44330;51.360;6.686;2023-02-20T10:15:37;20.85;;;10.93;;
42662;SDS011;44330;51.360;6.686;2023-02-20T10:18:23;26.35;;;11.23;;
42662;SDS011;44330;51.360;6.686;2023-02-20T10:24:12;21.80;;;10.80;;
42662;SDS011;44330;51.360;6.686;2023-02-20T10:30:10;23.27;;;10.63;;
42662;SDS011;44330;51.360;6.686;2023-02-20T10:32:42;26.45;;;10.93;;
42662;SDS011;44330;51.360;6.686;2023-02-20T10:35:21;31.63;;;11.73;;
42662;SDS011;44330;51.360;6.686;2023-02-20T10:37:52;20.13;;;10.60;;
42662;SDS011;44330;51.360;6.686;2023-02-20T10:43:20;31.38;;;10.60;;
42662;SDS011;44330;51.360;6.686;2023-02-20T10:46:09;24.00;;;10.85;;
42662;SDS011;44330;51.360;6.686;2023-02-20T10:48:42;28.10;;;12.70;;
42662;SDS011;44330;51.360;6.686;2023-02-20T10:53:57;26.05;;;11.45;;
42662;SDS011;44330;51.360;6.686;2023-02-20T11:01:54;28.52;;;10.43;;
42662;SDS011;44330;51.360;6.686;2023-02-20T11:04:23;23.08;;;10.00;;
42662;SDS011;44330;51.360;6.686;2023-02-20T11:09:28;25.13;;;11.77;;
42662;SDS011;44330;51.360;6.686;2023-02-20T11:11:54;24.05;;;11.40;;
42662;SDS011;44330;51.360;6.686;2023-02-20T11:14:25;27.20;;;10.45;;
42662;SDS011;44330;51.360;6.686;2023-02-20T11:17:12;20.65;;;10.70;;
42662;SDS011;44330;51.360;6.686;2023-02-20T11:22:17;24.45;;;10.57;;
42662;SDS011;44330;51.360;6.686;2023-02-20T11:28:10;25.52;;;10.73;;
42662;SDS011;44330;51.360;6.686;2023-02-20T11:30:57;21.88;;;9.98;;
42662;SDS011;44330;51.360;6.686;2023-02-20T11:33:25;36.13;;;11.48;;
42662;SDS011;44330;51.360;6.686;2023-02-20T11:35:56;25.00;;;10.95;;
42662;SDS011;44330;51.360;6.686;2023-02-20T11:38:33;29.48;;;10.88;;
42662;SDS011;44330;51.360;6.686;2023-02-20T11:41:01;30.15;;;11.80;;
42662;SDS011;44330;51.360;6.686;2023-02-20T11:43:32;25.55;;;11.77;;
42662;SDS011;44330;51.360;6.686;2023-02-20T11:48:33;25.85;;;10.93;;
42662;SDS011;44330;51.360;6.686;2023-02-20T11:50:59;22.70;;;10.60;;
42662;SDS011;44330;51.360;6.686;2023-02-20T11:53:28;25.80;;;11.57;;
42662;SDS011;44330;51.360;6.686;2023-02-20T11:58:39;24.67;;;11.32;;
42662;SDS011;44330;51.360;6.686;2023-02-20T12:01:07;23.98;;;10.65;;
42662;SDS011;44330;51.360;6.686;2023-02-20T12:03:56;25.10;;;11.43;;
42662;SDS011;44330;51.360;6.686;2023-02-20T12:08:58;25.90;;;11.95;;
42662;SDS011;44330;51.360;6.686;2023-02-20T12:11:26;29.35;;;12.88;;
42662;SDS011;44330;51.360;6.686;2023-02-20T12:13:53;24.42;;;10.75;;
42662;SDS011;44330;51.360;6.686;2023-02-20T12:22:17;29.10;;;12.18;;
42662;SDS011;44330;51.360;6.686;2023-02-20T12:24:57;24.33;;;11.73;;
42662;SDS011;44330;51.360;6.686;2023-02-20T12:27:45;29.80;;;12.23;;
42662;SDS011;44330;51.360;6.686;2023-02-20T12:39:05;31.85;;;12.10;;
42662;SDS011;44330;51.360;6.686;2023-02-20T12:42:02;27.75;;;11.88;;
42662;SDS011;44330;51.360;6.686;2023-02-20T12:49:52;24.77;;;12.25;;
42662;SDS011;44330;51.360;6.686;2023-02-20T12:52:45;23.15;;;12.50;;
42662;SDS011;44330;51.360;6.686;2023-02-20T13:00:35;29.73;;;11.45;;
42662;SDS011;44330;51.360;6.686;2023-02-20T13:05:59;24.35;;;11.60;;
42662;SDS011;44330;51.360;6.686;2023-02-20T13:08:26;29.67;;;12.60;;
42662;SDS011;44330;51.360;6.686;2023-02-20T13:11:13;26.63;;;11.50;;
42662;SDS011;44330;51.360;6.686;2023-02-20T13:13:52;25.80;;;11.60;;
42662;SDS011;44330;51.360;6.686;2023-02-20T13:16:32;22.98;;;11.82;;
42662;SDS011;44330;51.360;6.686;2023-02-20T13:19:14;30.02;;;12.27;;
42662;SDS011;44330;51.360;6.686;2023-02-20T13:21:58;28.55;;;11.90;;
42662;SDS011;44330;51.360;6.686;2023-02-20T13:24:27;29.50;;;12.32;;
42662;SDS011;44330;51.360;6.686;2023-02-20T13:26:55;29.80;;;11.40;;
42662;SDS011;44330;51.360;6.686;2023-02-20T13:29:23;26.45;;;11.80;;
42662;SDS011;44330;51.360;6.686;2023-02-20T13:31:54;26.73;;;11.73;;
42662;SDS011;44330;51.360;6.686;2023-02-20T13:34:29;27.98;;;12.25;;
42662;SDS011;44330;51.360;6.686;2023-02-20T13:37:16;29.23;;;11.68;;
42662;SDS011;44330;51.360;6.686;2023-02-20T13:40:32;25.48;;;11.40;;
42662;SDS011;44330;51.360;6.686;2023-02-20T13:43:05;27.70;;;11.48;;
42662;SDS011;44330;51.360;6.686;2023-02-20T13:45:47;26.58;;;11.70;;
42662;SDS011;44330;51.360;6.686;2023-02-20T13:53:48;26.60;;;11.48;;
42662;SDS011;44330;51.360;6.686;2023-02-20T13:56:19;30.50;;;12.57;;
42662;SDS011;44330;51.360;6.686;2023-02-20T13:59:09;28.38;;;11.85;;
42662;SDS011;44330;51.360;6.686;2023-02-20T14:04:50;25.65;;;10.90;;
42662;SDS011;44330;51.360;6.686;2023-02-20T14:07:25;22.98;;;11.20;;
42662;SDS011;44330;51.360;6.686;2023-02-20T14:10:06;25.85;;;11.93;;
42662;SDS011;44330;51.360;6.686;2023-02-20T14:12:40;28.45;;;12.25;;
42662;SDS011;44330;51.360;6.686;2023-02-20T14:15:06;22.35;;;11.50;;
42662;SDS011;44330;51.360;6.686;2023-02-20T14:17:32;24.73;;;11.55;;
42662;SDS011;44330;51.360;6.686;2023-02-20T14:20:00;16.05;;;8.20;;
42662;SDS011;44330;51.360;6.686;2023-02-20T14:22:31;33.33;;;12.05;;
42662;SDS011;44330;51.360;6.686;2023-02-20T14:25:17;24.27;;;11.30;;
42662;SDS011;44330;51.360;6.686;2023-02-20T14:27:45;21.55;;;10.98;;
42662;SDS011;44330;51.360;6.686;2023-02-20T14:32:48;26.23;;;10.25;;
42662;SDS011;44330;51.360;6.686;2023-02-20T14:40:36;22.33;;;9.98;;
42662;SDS011;44330;51.360;6.686;2023-02-20T14:43:09;30.75;;;11.10;;
42662;SDS011;44330;51.360;6.686;2023-02-20T14:45:41;23.38;;;11.23;;
42662;SDS011;44330;51.360;6.686;2023-02-20T14:48:20;22.20;;;10.00;;
42662;SDS011;44330;51.360;6.686;2023-02-20T14:50:47;21.40;;;10.63;;
42662;SDS011;44330;51.360;6.686;2023-02-20T14:53:17;20.20;;;10.52;;
42662;SDS011;44330;51.360;6.686;2023-02-20T14:55:45;23.27;;;10.27;;
42662;SDS011;44330;51.360;6.686;2023-02-20T14:58:14;21.02;;;9.98;;
42662;SDS011;44330;51.360;6.686;2023-02-20T15:00:44;30.80;;;10.98;;
42662;SDS011;44330;51.360;6.686;2023-02-20T15:03:16;20.85;;;10.73;;
42662;SDS011;44330;51.360;6.686;2023-02-20T15:05:45;23.33;;;10.48;;
42662;SDS011;44330;51.360;6.686;2023-02-20T15:10:43;22.73;;;10.73;;
42662;SDS011;44330;51.360;6.686;2023-02-20T15:13:15;21.98;;;11.15;;
42662;SDS011;44330;51.360;6.686;2023-02-20T15:18:13;21.25;;;9.95;;
42662;SDS011;44330;51.360;6.686;2023-02-20T15:20:42;24.35;;;10.65;;
42662;SDS011;44330;51.360;6.686;2023-02-20T15:23:17;24.70;;;10.93;;
42662;SDS011;44330;51.360;6.686;2023-02-20T15:25:51;18.63;;;10.10;;
42662;SDS011;44330;51.360;6.686;2023-02-20T15:33:38;27.85;;;11.10;;
42662;SDS011;44330;51.360;6.686;2023-02-20T15:36:12;23.27;;;11.25;;
42662;SDS011;44330;51.360;6.686;2023-02-20T15:38:39;28.92;;;10.93;;
42662;SDS011;44330;51.360;6.686;2023-02-20T15:41:05;27.88;;;11.32;;
42662;SDS011;44330;51.360;6.686;2023-02-20T15:43:31;22.40;;;10.45;;
42662;SDS011;44330;51.360;6.686;2023-02-20T15:45:57;28.13;;;11.27;;
42662;SDS011;44330;51.360;6.686;2023-02-20T15:48:23;25.15;;;11.85;;
42662;SDS011;44330;51.360;6.686;2023-02-20T15:50:49;23.02;;;11.55;;
42662;SDS011;44330;51.360;6.686;2023-02-20T15:53:25;26.70;;;10.88;;
42662;SDS011;44330;51.360;6.686;2023-02-20T15:55:54;27.02;;;12.15;;
42662;SDS011;44330;51.360;6.686;2023-02-20T15:58:29;33.70;;;12.45;;
42662;SDS011;44330;51.360;6.686;2023-02-20T16:00:57;31.20;;;12.10;;
42662;SDS011;44330;51.360;6.686;2023-02-20T16:03:24;32.70;;;12.65;;
42662;SDS011;44330;51.360;6.686;2023-02-20T16:05:51;25.23;;;11.90;;
42662;SDS011;44330;51.360;6.686;2023-02-20T16:08:17;29.30;;;12.60;;
42662;SDS011;44330;51.360;6.686;2023-02-20T16:10:44;27.95;;;11.35;;
42662;SDS011;44330;51.360;6.686;2023-02-20T16:13:43;24.58;;;10.65;;
42662;SDS011;44330;51.360;6.686;2023-02-20T16:18:58;23.15;;;10.70;;
42662;SDS011;44330;51.360;6.686;2023-02-20T16:21:25;32.85;;;12.25;;
42662;SDS011;44330;51.360;6.686;2023-02-20T16:23:51;24.13;;;11.13;;
42662;SDS011;44330;51.360;6.686;2023-02-20T16:26:17;20.70;;;10.05;;
42662;SDS011;44330;51.360;6.686;2023-02-20T16:28:47;17.50;;;7.75;;
42662;SDS011;44330;51.360;6.686;2023-02-20T16:31:16;19.80;;;10.10;;
42662;SDS011;44330;51.360;6.686;2023-02-20T16:33:42;17.45;;;9.77;;
42662;SDS011;44330;51.360;6.686;2023-02-20T16:36:07;20.83;;;9.77;;
42662;SDS011;44330;51.360;6.686;2023-02-20T16:38:33;25.35;;;11.32;;
42662;SDS011;44330;51.360;6.686;2023-02-20T16:40:59;23.85;;;10.05;;
42662;SDS011;44330;51.360;6.686;2023-02-20T16:43:27;27.00;;;10.82;;
42662;SDS011;44330;51.360;6.686;2023-02-20T16:45:53;26.38;;;10.13;;
42662;SDS011;44330;51.360;6.686;2023-02-20T16:48:19;23.23;;;10.10;;
42662;SDS011;44330;51.360;6.686;2023-02-20T16:50:49;19.77;;;9.90;;
42662;SDS011;44330;51.360;6.686;2023-02-20T16:53:17;20.63;;;10.65;;
42662;SDS011;44330;51.360;6.686;2023-02-20T16:55:43;25.95;;;11.93;;